createdAt,value
2022-08-29T00:00:17.898Z,6.03
2022-08-29T00:02:49.948Z,8.20
2022-08-29T00:05:18.647Z,5.83
2022-08-29T00:07:45.656Z,7.80
2022-08-29T00:10:12.732Z,7.00
2022-08-29T00:12:39.371Z,7.30
2022-08-29T00:15:07.542Z,6.20
2022-08-29T00:17:34.024Z,6.23
2022-08-29T00:20:01.003Z,6.20
2022-08-29T00:22:27.573Z,6.43
2022-08-29T00:24:54.181Z,6.80
2022-08-29T00:27:20.681Z,7.20
2022-08-29T00:29:47.481Z,7.47
2022-08-29T00:32:14.011Z,8.67
2022-08-29T00:34:40.667Z,6.60
2022-08-29T00:37:07.211Z,6.30
2022-08-29T00:39:33.980Z,6.03
2022-08-29T00:42:01.346Z,7.70
2022-08-29T00:44:28.864Z,6.90
2022-08-29T00:46:57.681Z,6.47
2022-08-29T00:49:24.308Z,5.63
2022-08-29T00:51:51.326Z,7.20
2022-08-29T00:54:17.870Z,7.23
2022-08-29T00:56:45.410Z,7.40
2022-08-29T00:59:26.165Z,7.63
2022-08-29T01:01:55.288Z,8.03
2022-08-29T01:04:24.028Z,8.23
2022-08-29T01:06:51.661Z,7.40
2022-08-29T01:09:18.320Z,6.67
2022-08-29T01:12:03.154Z,8.20
2022-08-29T01:14:29.716Z,8.80
2022-08-29T01:16:58.019Z,8.50
2022-08-29T01:19:41.948Z,6.87
2022-08-29T01:22:17.184Z,8.23
2022-08-29T01:24:50.929Z,7.93
2022-08-29T01:27:23.812Z,8.93
2022-08-29T01:29:50.443Z,8.70
2022-08-29T01:32:17.194Z,8.00
2022-08-29T01:34:43.939Z,8.10
2022-08-29T01:37:13.236Z,7.67
2022-08-29T01:39:41.505Z,7.10
2022-08-29T01:42:12.832Z,9.03
2022-08-29T01:44:39.795Z,9.47
2022-08-29T01:47:08.078Z,10.17
2022-08-29T01:49:40.503Z,8.70
2022-08-29T01:52:08.711Z,7.43
2022-08-29T01:54:35.292Z,8.90
2022-08-29T01:57:02.257Z,8.50
2022-08-29T01:59:30.304Z,7.83
2022-08-29T02:01:58.881Z,9.50
2022-08-29T02:04:25.599Z,9.10
2022-08-29T02:06:52.527Z,8.23
2022-08-29T02:09:19.234Z,8.10
2022-08-29T02:11:46.603Z,8.30
2022-08-29T02:14:19.482Z,6.90
2022-08-29T02:16:47.345Z,7.80
2022-08-29T02:19:14.044Z,7.63
2022-08-29T02:21:42.068Z,7.40
2022-08-29T02:24:24.500Z,8.10
2022-08-29T02:26:52.953Z,8.67
2022-08-29T02:29:19.452Z,7.90
2022-08-29T02:31:45.957Z,8.40
2022-08-29T02:34:13.250Z,8.00
2022-08-29T02:36:41.400Z,9.13
2022-08-29T02:39:08.558Z,8.23
2022-08-29T02:41:36.247Z,7.53
2022-08-29T02:44:03.786Z,8.43
2022-08-29T02:46:30.698Z,9.00
2022-08-29T02:49:01.146Z,8.50
2022-08-29T02:51:30.227Z,9.13
2022-08-29T02:53:57.456Z,9.50
2022-08-29T02:56:24.068Z,9.43
2022-08-29T02:58:50.824Z,7.70
2022-08-29T03:01:19.972Z,8.50
2022-08-29T03:03:46.854Z,7.10
2022-08-29T03:06:13.604Z,7.97
2022-08-29T03:08:40.788Z,7.20
2022-08-29T03:11:07.817Z,7.10
2022-08-29T03:13:34.470Z,8.83
2022-08-29T03:16:04.604Z,10.33
2022-08-29T03:18:31.337Z,10.20
2022-08-29T03:20:58.357Z,10.03
2022-08-29T03:23:25.031Z,8.80
2022-08-29T03:25:51.604Z,9.20
2022-08-29T03:28:18.143Z,9.90
2022-08-29T03:30:45.017Z,9.97
2022-08-29T03:33:12.092Z,9.40
2022-08-29T03:35:39.311Z,8.63
2022-08-29T03:38:06.370Z,10.30
2022-08-29T03:40:33.139Z,9.20
2022-08-29T03:43:00.547Z,8.23
2022-08-29T03:45:27.205Z,9.50
2022-08-29T03:47:53.880Z,8.93
2022-08-29T03:50:21.117Z,8.40
2022-08-29T03:52:48.225Z,8.50
2022-08-29T03:55:16.059Z,7.90
2022-08-29T03:57:43.100Z,8.60
2022-08-29T04:00:13.902Z,10.03
2022-08-29T04:02:40.616Z,8.40
2022-08-29T04:05:08.368Z,7.63
2022-08-29T04:07:46.457Z,7.27
2022-08-29T04:10:17.675Z,7.20
2022-08-29T04:12:44.335Z,6.50
2022-08-29T04:15:11.067Z,7.87
2022-08-29T04:17:38.257Z,7.33
2022-08-29T04:20:24.137Z,6.70
2022-08-29T04:22:51.552Z,7.43
2022-08-29T04:25:18.231Z,6.60
2022-08-29T04:27:44.911Z,8.43
2022-08-29T04:30:17.928Z,9.77
2022-08-29T04:32:44.590Z,9.50
2022-08-29T04:35:15.696Z,9.00
2022-08-29T04:37:43.622Z,9.07
2022-08-29T04:40:13.712Z,8.27
2022-08-29T04:42:40.696Z,8.67
2022-08-29T04:45:08.993Z,8.87
2022-08-29T04:47:36.322Z,7.70
2022-08-29T04:50:03.075Z,8.80
2022-08-29T04:52:29.835Z,9.10
2022-08-29T04:54:56.407Z,8.10
2022-08-29T04:57:24.527Z,8.77
2022-08-29T04:59:58.950Z,8.30
2022-08-29T05:02:27.383Z,8.50
2022-08-29T05:04:54.504Z,11.60
2022-08-29T05:07:22.289Z,8.67
2022-08-29T05:10:17.470Z,7.90
2022-08-29T05:12:44.576Z,7.80
2022-08-29T05:15:12.799Z,8.30
2022-08-29T05:17:39.687Z,7.40
2022-08-29T05:20:07.928Z,7.63
2022-08-29T05:22:35.029Z,8.30
2022-08-29T05:25:03.274Z,9.80
2022-08-29T05:27:31.926Z,7.53
2022-08-29T05:29:58.561Z,7.70
2022-08-29T05:32:25.303Z,8.33
2022-08-29T05:34:51.818Z,8.50
2022-08-29T05:37:20.325Z,8.23
2022-08-29T05:39:48.106Z,7.87
2022-08-29T05:42:17.132Z,7.00
2022-08-29T05:44:43.858Z,8.03
2022-08-29T05:47:13.016Z,7.50
2022-08-29T05:49:41.890Z,8.37
2022-08-29T05:52:09.070Z,8.70
2022-08-29T05:54:38.232Z,8.63
2022-08-29T05:57:05.353Z,7.70
2022-08-29T05:59:31.918Z,7.60
2022-08-29T06:01:58.433Z,8.43
2022-08-29T06:04:25.006Z,9.80
2022-08-29T06:06:51.555Z,9.50
2022-08-29T06:09:18.384Z,8.40
2022-08-29T06:11:49.929Z,9.53
2022-08-29T06:14:17.485Z,6.97
2022-08-29T06:16:44.121Z,8.47
2022-08-29T06:19:10.960Z,7.20
2022-08-29T06:21:38.124Z,7.17
2022-08-29T06:24:05.300Z,7.83
2022-08-29T06:26:31.953Z,7.30
2022-08-29T06:28:58.443Z,6.83
2022-08-29T06:31:29.339Z,6.80
2022-08-29T06:33:58.792Z,7.50
2022-08-29T06:36:25.885Z,6.73
2022-08-29T06:38:56.462Z,7.13
2022-08-29T06:41:24.851Z,7.20
2022-08-29T06:43:51.855Z,7.00
2022-08-29T06:46:24.682Z,6.40
2022-08-29T06:48:52.145Z,7.43
2022-08-29T06:51:18.791Z,6.87
2022-08-29T06:53:45.393Z,6.63
2022-08-29T06:56:12.156Z,6.27
2022-08-29T06:58:38.721Z,6.17
2022-08-29T07:01:14.651Z,6.80
2022-08-29T07:03:41.395Z,5.23
2022-08-29T07:06:08.472Z,7.33
2022-08-29T07:08:35.842Z,6.23
2022-08-29T07:11:02.614Z,6.33
2022-08-29T07:13:29.226Z,5.63
2022-08-29T07:15:55.840Z,7.50
2022-08-29T07:18:22.648Z,5.80
2022-08-29T07:20:49.228Z,7.13
2022-08-29T07:23:16.087Z,6.03
2022-08-29T07:25:42.806Z,5.77
2022-08-29T07:28:09.377Z,5.67
2022-08-29T07:30:37.293Z,6.67
2022-08-29T07:33:04.123Z,5.50
2022-08-29T07:35:31.022Z,6.23
2022-08-29T07:38:03.658Z,6.80
2022-08-29T07:40:30.352Z,6.20
2022-08-29T07:42:57.009Z,5.60
2022-08-29T07:45:23.552Z,5.60
2022-08-29T07:47:50.194Z,4.77
2022-08-29T07:50:17.106Z,4.33
2022-08-29T07:52:43.718Z,4.83
2022-08-29T07:55:10.491Z,4.50
2022-08-29T07:57:39.930Z,5.73
2022-08-29T08:00:12.477Z,4.83
2022-08-29T08:02:39.197Z,5.67
2022-08-29T08:05:07.158Z,4.93
2022-08-29T08:07:40.170Z,4.80
2022-08-29T08:10:07.508Z,4.90
2022-08-29T08:12:34.019Z,5.63
2022-08-29T08:15:01.206Z,4.90
2022-08-29T08:17:27.912Z,5.00
2022-08-29T08:19:54.397Z,5.37
2022-08-29T08:22:20.892Z,4.80
2022-08-29T08:24:48.583Z,5.53
2022-08-29T08:27:15.085Z,5.20
2022-08-29T08:29:43.826Z,5.00
2022-08-29T08:32:10.407Z,4.97
2022-08-29T08:34:37.033Z,4.70
2022-08-29T08:37:08.201Z,4.73
2022-08-29T08:39:35.051Z,4.70
2022-08-29T08:42:13.521Z,4.93
2022-08-29T08:45:03.636Z,4.70
2022-08-29T08:47:37.856Z,4.53
2022-08-29T08:50:13.633Z,5.43
2022-08-29T08:52:46.170Z,5.30
2022-08-29T08:55:29.548Z,5.50
2022-08-29T08:58:03.142Z,6.27
2022-08-29T09:00:37.062Z,5.50
2022-08-29T09:03:13.196Z,5.23
2022-08-29T09:05:51.060Z,5.03
2022-08-29T09:08:31.006Z,4.63
2022-08-29T09:11:04.442Z,5.07
2022-08-29T09:13:54.088Z,4.57
2022-08-29T09:16:26.796Z,5.50
2022-08-29T09:18:56.691Z,5.40
2022-08-29T09:24:18.369Z,5.83
2022-08-29T09:26:45.046Z,5.40
2022-08-29T09:29:13.893Z,5.67
2022-08-29T09:31:41.146Z,6.30
2022-08-29T09:34:13.203Z,5.97
2022-08-29T09:36:50.674Z,6.00
2022-08-29T09:39:29.259Z,5.20
2022-08-29T09:42:13.847Z,4.43
2022-08-29T09:44:41.386Z,4.67
2022-08-29T09:47:20.994Z,6.00
2022-08-29T09:50:26.929Z,5.00
2022-08-29T09:53:01.389Z,6.60
2022-08-29T09:55:32.939Z,6.00
2022-08-29T09:58:03.324Z,5.90
2022-08-29T10:00:34.493Z,6.07
2022-08-29T10:03:03.408Z,5.13
2022-08-29T10:05:44.313Z,6.10
2022-08-29T10:08:36.049Z,5.37
2022-08-29T10:11:19.965Z,5.87
2022-08-29T10:13:54.319Z,6.47
2022-08-29T10:16:27.018Z,5.50
2022-08-29T10:18:59.770Z,6.10
2022-08-29T10:21:39.284Z,6.10
2022-08-29T10:24:19.590Z,6.20
2022-08-29T10:26:58.682Z,6.30
2022-08-29T10:29:40.520Z,6.90
2022-08-29T10:32:15.909Z,6.10
2022-08-29T10:34:56.440Z,7.07
2022-08-29T10:37:32.000Z,6.00
2022-08-29T10:40:19.184Z,7.77
2022-08-29T10:42:47.558Z,6.20
2022-08-29T10:45:15.680Z,7.00
2022-08-29T10:47:52.740Z,7.87
2022-08-29T10:50:42.474Z,7.27
2022-08-29T10:53:25.598Z,6.87
2022-08-29T10:56:01.097Z,8.23
2022-08-29T10:58:47.867Z,8.37
2022-08-29T11:01:35.688Z,7.23
2022-08-29T11:04:24.228Z,8.00
2022-08-29T11:07:11.900Z,7.57
2022-08-29T11:09:50.652Z,6.53
2022-08-29T11:12:52.043Z,7.73
2022-08-29T11:15:43.109Z,7.47
2022-08-29T11:18:22.402Z,6.97
2022-08-29T11:20:56.157Z,8.40
2022-08-29T11:23:33.813Z,6.70
2022-08-29T11:26:06.251Z,7.43
2022-08-29T11:31:39.919Z,7.83
2022-08-29T11:34:23.871Z,8.23
2022-08-29T11:36:56.164Z,8.13
2022-08-29T11:39:44.044Z,7.90
2022-08-29T11:42:12.829Z,7.87
2022-08-29T11:44:51.671Z,8.87
2022-08-29T11:47:40.525Z,9.03
2022-08-29T11:50:17.069Z,8.40
2022-08-29T11:52:53.003Z,7.53
2022-08-29T11:55:31.756Z,9.07
2022-08-29T11:58:07.126Z,8.70
2022-08-29T12:00:54.630Z,7.43
2022-08-29T12:03:33.807Z,7.23
2022-08-29T12:06:28.125Z,8.00
2022-08-29T12:09:18.562Z,8.30
2022-08-29T12:12:13.148Z,8.50
2022-08-29T12:14:43.861Z,8.30
2022-08-29T12:18:00.489Z,7.90
2022-08-29T12:20:40.185Z,8.50
2022-08-29T12:23:15.821Z,7.23
2022-08-29T12:25:45.195Z,8.07
2022-08-29T12:28:18.354Z,7.00
2022-08-29T12:30:48.035Z,7.70
2022-08-29T12:33:54.755Z,8.77
2022-08-29T12:37:16.850Z,7.50
2022-08-29T12:39:49.119Z,8.10
2022-08-29T12:42:15.755Z,7.30
2022-08-29T12:44:48.695Z,7.60
2022-08-29T12:47:28.936Z,7.50
2022-08-29T12:49:59.429Z,7.47
2022-08-29T12:52:31.493Z,6.80
2022-08-29T12:55:28.859Z,8.00
2022-08-29T12:57:56.813Z,7.73
2022-08-29T13:00:30.087Z,7.80
2022-08-29T13:02:56.558Z,7.80
2022-08-29T13:05:28.840Z,7.30
2022-08-29T13:07:59.010Z,7.30
2022-08-29T13:10:26.002Z,6.63
2022-08-29T13:13:02.391Z,7.37
2022-08-29T13:15:32.940Z,7.77
2022-08-29T13:17:59.830Z,9.17
2022-08-29T13:20:38.534Z,7.20
2022-08-29T13:23:23.790Z,8.33
2022-08-29T13:26:09.336Z,8.20
2022-08-29T13:28:40.090Z,8.67
2022-08-29T13:31:09.054Z,7.80
2022-08-29T13:33:36.373Z,7.80
2022-08-29T13:36:41.304Z,8.40
2022-08-29T13:39:26.584Z,7.73
2022-08-29T13:42:02.443Z,8.00
2022-08-29T13:44:36.370Z,7.43
2022-08-29T13:47:13.141Z,7.73
2022-08-29T13:49:40.792Z,8.57
2022-08-29T13:52:07.774Z,8.13
2022-08-29T13:54:35.139Z,7.80
2022-08-29T13:57:04.476Z,8.23
2022-08-29T13:59:36.197Z,10.43
2022-08-29T14:02:11.811Z,8.13
2022-08-29T14:04:40.779Z,7.43
2022-08-29T14:07:23.228Z,8.80
2022-08-29T14:09:50.344Z,8.67
2022-08-29T14:12:17.338Z,9.30
2022-08-29T14:14:44.821Z,8.40
2022-08-29T14:17:18.598Z,8.57
2022-08-29T14:19:46.510Z,8.70
2022-08-29T14:22:13.354Z,8.43
2022-08-29T14:24:41.888Z,8.20
2022-08-29T14:27:09.061Z,8.00
2022-08-29T14:29:35.741Z,7.60
2022-08-29T14:32:03.533Z,7.50
2022-08-29T14:34:32.784Z,7.30
2022-08-29T14:37:00.401Z,8.07
2022-08-29T14:39:27.013Z,7.97
2022-08-29T14:41:54.453Z,8.07
2022-08-29T14:44:22.169Z,7.40
2022-08-29T14:46:49.102Z,6.80
2022-08-29T14:49:15.843Z,8.90
2022-08-29T14:51:44.208Z,8.83
2022-08-29T14:54:11.487Z,8.30
2022-08-29T14:56:54.479Z,8.57
2022-08-29T14:59:22.284Z,8.60
2022-08-29T15:01:53.828Z,7.60
2022-08-29T15:04:35.095Z,7.57
2022-08-29T15:07:08.839Z,8.13
2022-08-29T15:09:35.454Z,7.90
2022-08-29T15:12:02.201Z,8.57
2022-08-29T15:14:28.739Z,6.50
2022-08-29T15:16:55.219Z,7.30
2022-08-29T15:22:08.219Z,8.70
2022-08-29T15:24:35.004Z,7.10
2022-08-29T15:27:02.051Z,7.67
2022-08-29T15:29:28.675Z,7.70
2022-08-29T15:31:57.302Z,8.43
2022-08-29T15:34:28.296Z,7.83
2022-08-29T15:36:55.707Z,6.93
2022-08-29T15:39:22.671Z,7.13
2022-08-29T15:41:49.240Z,7.70
2022-08-29T15:44:15.804Z,7.50
2022-08-29T15:46:50.394Z,8.10
2022-08-29T15:49:19.120Z,7.10
2022-08-29T15:51:46.132Z,8.50
2022-08-29T15:54:15.334Z,7.83
2022-08-29T15:56:42.432Z,7.33
2022-08-29T15:59:11.241Z,8.80
2022-08-29T16:01:38.484Z,7.30
2022-08-29T16:04:07.960Z,7.73
2022-08-29T16:06:36.410Z,7.10
2022-08-29T16:09:04.489Z,7.57
2022-08-29T16:11:42.517Z,8.07
2022-08-29T16:16:57.251Z,6.00
2022-08-29T16:19:23.802Z,6.60
2022-08-29T16:21:50.515Z,7.10
2022-08-29T16:24:17.493Z,6.33
2022-08-29T16:26:45.938Z,7.60
2022-08-29T16:29:13.044Z,7.93
2022-08-29T16:31:39.902Z,8.97
2022-08-29T16:34:06.511Z,8.00
2022-08-29T16:36:33.156Z,9.10
2022-08-29T16:38:59.745Z,8.10
2022-08-29T16:41:27.470Z,8.47
2022-08-29T16:43:55.233Z,8.10
2022-08-29T16:46:24.561Z,8.73
2022-08-29T16:48:51.471Z,7.23
2022-08-29T16:51:20.531Z,7.83
2022-08-29T16:53:47.209Z,8.10
2022-08-29T16:56:15.291Z,7.50
2022-08-29T16:59:04.631Z,7.87
2022-08-29T17:01:43.077Z,7.90
2022-08-29T17:04:12.254Z,8.47
2022-08-29T17:06:39.123Z,7.50
2022-08-29T17:09:08.769Z,8.27
2022-08-29T17:11:37.085Z,8.77
2022-08-29T17:14:04.529Z,7.57
2022-08-29T17:16:31.551Z,7.37
2022-08-29T17:18:58.434Z,9.77
2022-08-29T17:21:25.829Z,8.00
2022-08-29T17:23:52.677Z,9.00
2022-08-29T17:26:19.258Z,8.83
2022-08-29T17:28:46.633Z,9.87
2022-08-29T17:31:13.518Z,9.63
2022-08-29T17:33:40.725Z,8.90
2022-08-29T17:36:09.119Z,9.47
2022-08-29T17:38:36.033Z,7.83
2022-08-29T17:41:05.095Z,8.83
2022-08-29T17:43:42.013Z,8.60
2022-08-29T17:46:08.659Z,8.67
2022-08-29T17:48:35.297Z,8.67
2022-08-29T17:51:01.827Z,8.40
2022-08-29T17:53:29.610Z,8.67
2022-08-29T17:55:56.265Z,9.33
2022-08-29T17:58:22.890Z,9.80
2022-08-29T18:00:49.770Z,9.10
2022-08-29T18:03:17.095Z,7.80
2022-08-29T18:05:43.805Z,8.60
2022-08-29T18:08:10.331Z,9.10
2022-08-29T18:10:38.539Z,8.20
2022-08-29T18:13:05.062Z,9.07
2022-08-29T18:15:34.107Z,9.73
2022-08-29T18:18:02.136Z,8.60
2022-08-29T18:20:29.080Z,9.73
2022-08-29T18:22:56.136Z,9.60
2022-08-29T18:25:22.986Z,9.30
2022-08-29T18:27:50.307Z,9.97
2022-08-29T18:30:17.258Z,8.70
2022-08-29T18:32:43.760Z,8.53
2022-08-29T18:35:11.111Z,9.80
2022-08-29T18:37:37.711Z,9.43
2022-08-29T18:40:07.637Z,8.90
2022-08-29T18:42:40.766Z,8.80
2022-08-29T18:45:08.777Z,8.67
2022-08-29T18:47:36.464Z,8.47
2022-08-29T18:50:30.047Z,8.40
2022-08-29T18:52:56.773Z,9.30
2022-08-29T18:55:23.891Z,10.07
2022-08-29T18:57:51.677Z,8.27
2022-08-29T19:00:18.548Z,10.43
2022-08-29T19:02:45.174Z,9.00
2022-08-29T19:05:12.009Z,10.30
2022-08-29T19:07:38.758Z,9.70
2022-08-29T19:10:06.304Z,9.27
2022-08-29T19:12:33.080Z,9.10
2022-08-29T19:15:00.249Z,8.67
2022-08-29T19:17:26.845Z,8.87
2022-08-29T19:20:12.348Z,9.67
2022-08-29T19:22:39.335Z,8.37
2022-08-29T19:25:08.734Z,8.57
2022-08-29T19:27:44.386Z,9.40
2022-08-29T19:30:13.375Z,7.93
2022-08-29T19:32:40.241Z,7.93
2022-08-29T19:35:07.806Z,8.40
2022-08-29T19:37:34.378Z,9.50
2022-08-29T19:40:01.739Z,8.70
2022-08-29T19:42:28.335Z,8.83
2022-08-29T19:44:55.412Z,10.27
2022-08-29T19:47:23.407Z,10.77
2022-08-29T19:49:50.915Z,9.07
2022-08-29T19:52:17.547Z,9.43
2022-08-29T19:54:44.075Z,8.90
2022-08-29T19:57:14.527Z,9.30
2022-08-29T19:59:43.590Z,8.80
2022-08-29T20:02:11.243Z,9.90
2022-08-29T20:04:38.100Z,8.60
2022-08-29T20:07:05.454Z,8.30
2022-08-29T20:09:32.097Z,8.80
2022-08-29T20:11:59.361Z,8.80
2022-08-29T20:14:25.937Z,9.20
2022-08-29T20:16:52.664Z,11.00
2022-08-29T20:19:21.417Z,8.40
2022-08-29T20:21:49.922Z,9.10
2022-08-29T20:24:17.081Z,8.83
2022-08-29T20:26:44.747Z,9.70
2022-08-29T20:29:12.113Z,7.77
2022-08-29T20:31:39.640Z,7.43
2022-08-29T20:34:06.348Z,7.57
2022-08-29T20:36:51.861Z,7.30
2022-08-29T20:39:20.732Z,8.10
2022-08-29T20:41:49.737Z,8.87
2022-08-29T20:44:18.125Z,7.73
2022-08-29T20:46:45.141Z,9.30
2022-08-29T20:49:13.935Z,9.33
2022-08-29T20:51:44.082Z,8.93
2022-08-29T20:54:13.353Z,8.77
2022-08-29T20:56:40.209Z,8.80
2022-08-29T20:59:07.204Z,9.27
2022-08-29T21:01:36.065Z,10.50
2022-08-29T21:04:22.721Z,8.47
2022-08-29T21:06:56.740Z,9.70
2022-08-29T21:09:24.153Z,9.90
2022-08-29T21:11:51.938Z,11.03
2022-08-29T21:14:18.576Z,9.00
2022-08-29T21:16:46.178Z,8.53
2022-08-29T21:19:12.881Z,8.83
2022-08-29T21:21:40.490Z,8.73
2022-08-29T21:24:08.258Z,8.10
2022-08-29T21:26:35.125Z,8.50
2022-08-29T21:29:01.791Z,9.37
2022-08-29T21:31:28.565Z,10.63
2022-08-29T21:33:55.239Z,11.27
2022-08-29T21:36:25.748Z,10.40
2022-08-29T21:38:54.395Z,10.27
2022-08-29T21:41:21.623Z,9.23
2022-08-29T21:43:48.251Z,8.73
2022-08-29T21:46:21.712Z,7.00
2022-08-29T21:48:54.631Z,8.47
2022-08-29T21:51:23.213Z,9.20
2022-08-29T21:53:51.343Z,9.47
2022-08-29T21:56:18.293Z,9.50
2022-08-29T21:58:47.944Z,9.40
2022-08-29T22:01:14.471Z,9.63
2022-08-29T22:03:41.092Z,10.43
2022-08-29T22:06:09.237Z,10.10
2022-08-29T22:08:37.923Z,9.07
2022-08-29T22:11:12.785Z,8.93
2022-08-29T22:13:39.609Z,8.73
2022-08-29T22:16:24.740Z,8.90
2022-08-29T22:18:51.296Z,9.33
2022-08-29T22:21:17.889Z,8.60
2022-08-29T22:23:47.469Z,10.37
2022-08-29T22:26:14.379Z,9.70
2022-08-29T22:28:41.097Z,8.87
2022-08-29T22:31:07.759Z,8.93
2022-08-29T22:33:34.666Z,9.80
2022-08-29T22:36:01.443Z,8.70
2022-08-29T22:38:29.704Z,8.47
2022-08-29T22:40:56.200Z,9.40
2022-08-29T22:43:22.800Z,9.10
2022-08-29T22:45:50.783Z,9.00
2022-08-29T22:48:19.880Z,8.20
2022-08-29T22:50:51.978Z,8.37
2022-08-29T22:53:24.942Z,8.17
2022-08-29T22:55:51.428Z,8.47
2022-08-29T22:58:17.999Z,9.00
2022-08-29T23:00:44.459Z,8.00
2022-08-29T23:03:11.168Z,7.50
2022-08-29T23:05:37.682Z,7.47
2022-08-29T23:08:04.236Z,7.77
2022-08-29T23:10:31.980Z,8.73
2022-08-29T23:12:58.566Z,7.20
2022-08-29T23:15:25.296Z,8.47
2022-08-29T23:17:51.863Z,9.77
2022-08-29T23:20:19.156Z,9.07
2022-08-29T23:22:46.047Z,9.10
2022-08-29T23:25:15.296Z,9.10
2022-08-29T23:27:41.962Z,8.47
2022-08-29T23:30:10.200Z,8.87
2022-08-29T23:32:36.771Z,8.57
2022-08-29T23:35:04.256Z,9.33
2022-08-29T23:37:32.069Z,9.27
2022-08-29T23:39:58.945Z,7.57
2022-08-29T23:42:25.831Z,7.80
2022-08-29T23:44:52.648Z,7.67
2022-08-29T23:47:19.587Z,8.23
2022-08-29T23:49:46.536Z,6.53
2022-08-29T23:52:13.672Z,6.53
2022-08-29T23:54:40.270Z,7.10
2022-08-29T23:57:06.821Z,7.53
2022-08-29T23:59:52.751Z,7.57
